sensor_id;sensor_type;location;lat;lon;timestamp;P1;durP1;ratioP1;P2;durP2;ratioP2
21432;SDS011;18592;49.708;10.900;2022-12-18T00:01:05;42.50;;;21.10;;
21432;SDS011;18592;49.708;10.900;2022-12-18T00:03:14;44.37;;;19.80;;
21432;SDS011;18592;49.708;10.900;2022-12-18T00:05:17;50.73;;;21.00;;
21432;SDS011;18592;49.708;10.900;2022-12-18T00:07:21;43.63;;;21.00;;
21432;SDS011;18592;49.708;10.900;2022-12-18T00:09:32;44.00;;;21.00;;
21432;SDS011;18592;49.708;10.900;2022-12-18T00:11:42;45.17;;;20.83;;
21432;SDS011;18592;49.708;10.900;2022-12-18T00:13:44;41.80;;;19.93;;
21432;SDS011;18592;49.708;10.900;2022-12-18T00:15:46;39.87;;;19.50;;
21432;SDS011;18592;49.708;10.900;2022-12-18T00:17:48;36.87;;;18.70;;
21432;SDS011;18592;49.708;10.900;2022-12-18T00:19:50;44.43;;;20.73;;
21432;SDS011;18592;49.708;10.900;2022-12-18T00:21:53;44.43;;;21.97;;
21432;SDS011;18592;49.708;10.900;2022-12-18T00:23:56;44.00;;;22.40;;
21432;SDS011;18592;49.708;10.900;2022-12-18T00:25:58;42.63;;;21.23;;
21432;SDS011;18592;49.708;10.900;2022-12-18T00:28:05;40.40;;;20.10;;
21432;SDS011;18592;49.708;10.900;2022-12-18T00:30:07;34.70;;;17.67;;
21432;SDS011;18592;49.708;10.900;2022-12-18T00:32:10;36.13;;;18.57;;
21432;SDS011;18592;49.708;10.900;2022-12-18T00:34:12;32.67;;;17.57;;
21432;SDS011;18592;49.708;10.900;2022-12-18T00:36:15;36.13;;;18.10;;
21432;SDS011;18592;49.708;10.900;2022-12-18T00:38:21;34.27;;;17.43;;
21432;SDS011;18592;49.708;10.900;2022-12-18T00:40:23;32.43;;;16.70;;
21432;SDS011;18592;49.708;10.900;2022-12-18T00:42:28;29.60;;;15.63;;
21432;SDS011;18592;49.708;10.900;2022-12-18T00:44:48;30.33;;;16.43;;
21432;SDS011;18592;49.708;10.900;2022-12-18T00:46:50;34.30;;;16.90;;
21432;SDS011;18592;49.708;10.900;2022-12-18T00:48:52;30.77;;;16.37;;
21432;SDS011;18592;49.708;10.900;2022-12-18T00:50:54;32.97;;;16.60;;
21432;SDS011;18592;49.708;10.900;2022-12-18T00:52:57;35.27;;;17.17;;
21432;SDS011;18592;49.708;10.900;2022-12-18T00:54:58;32.77;;;16.43;;
21432;SDS011;18592;49.708;10.900;2022-12-18T00:57:06;30.33;;;15.83;;
21432;SDS011;18592;49.708;10.900;2022-12-18T00:59:07;33.47;;;16.07;;
21432;SDS011;18592;49.708;10.900;2022-12-18T01:01:09;35.13;;;16.70;;
21432;SDS011;18592;49.708;10.900;2022-12-18T01:03:14;37.60;;;17.03;;
21432;SDS011;18592;49.708;10.900;2022-12-18T01:05:18;28.40;;;16.00;;
21432;SDS011;18592;49.708;10.900;2022-12-18T01:07:19;36.50;;;17.77;;
21432;SDS011;18592;49.708;10.900;2022-12-18T01:09:21;31.87;;;16.33;;
21432;SDS011;18592;49.708;10.900;2022-12-18T01:11:26;35.10;;;17.50;;
21432;SDS011;18592;49.708;10.900;2022-12-18T01:13:27;33.13;;;17.73;;
21432;SDS011;18592;49.708;10.900;2022-12-18T01:15:39;34.13;;;17.37;;
21432;SDS011;18592;49.708;10.900;2022-12-18T01:17:44;35.70;;;17.20;;
21432;SDS011;18592;49.708;10.900;2022-12-18T01:19:46;39.77;;;17.33;;
21432;SDS011;18592;49.708;10.900;2022-12-18T01:21:48;40.40;;;19.00;;
21432;SDS011;18592;49.708;10.900;2022-12-18T01:23:53;42.37;;;19.43;;
21432;SDS011;18592;49.708;10.900;2022-12-18T01:25:57;39.37;;;18.50;;
21432;SDS011;18592;49.708;10.900;2022-12-18T01:27:59;37.20;;;18.17;;
21432;SDS011;18592;49.708;10.900;2022-12-18T01:30:01;37.50;;;18.60;;
21432;SDS011;18592;49.708;10.900;2022-12-18T01:32:02;36.83;;;18.57;;
21432;SDS011;18592;49.708;10.900;2022-12-18T01:34:05;38.17;;;17.90;;
21432;SDS011;18592;49.708;10.900;2022-12-18T01:36:13;37.80;;;18.03;;
21432;SDS011;18592;49.708;10.900;2022-12-18T01:38:16;38.20;;;18.07;;
21432;SDS011;18592;49.708;10.900;2022-12-18T01:40:19;39.93;;;19.33;;
21432;SDS011;18592;49.708;10.900;2022-12-18T01:42:24;45.17;;;19.40;;
21432;SDS011;18592;49.708;10.900;2022-12-18T01:47:06;45.57;;;20.47;;
21432;SDS011;18592;49.708;10.900;2022-12-18T01:49:07;45.20;;;20.13;;
21432;SDS011;18592;49.708;10.900;2022-12-18T01:51:13;45.20;;;20.40;;
21432;SDS011;18592;49.708;10.900;2022-12-18T01:53:17;43.97;;;19.60;;
21432;SDS011;18592;49.708;10.900;2022-12-18T01:55:26;42.07;;;20.83;;
21432;SDS011;18592;49.708;10.900;2022-12-18T01:57:30;41.03;;;19.40;;
21432;SDS011;18592;49.708;10.900;2022-12-18T01:59:32;45.03;;;19.83;;
21432;SDS011;18592;49.708;10.900;2022-12-18T02:01:41;42.23;;;19.37;;
21432;SDS011;18592;49.708;10.900;2022-12-18T02:03:43;45.70;;;21.47;;
21432;SDS011;18592;49.708;10.900;2022-12-18T02:13:12;41.20;;;19.93;;
21432;SDS011;18592;49.708;10.900;2022-12-18T02:18:09;38.73;;;18.57;;
21432;SDS011;18592;49.708;10.900;2022-12-18T02:22:51;41.43;;;19.50;;
21432;SDS011;18592;49.708;10.900;2022-12-18T02:27:22;35.57;;;17.63;;
21432;SDS011;18592;49.708;10.900;2022-12-18T02:29:25;35.57;;;18.00;;
21432;SDS011;18592;49.708;10.900;2022-12-18T02:31:58;38.77;;;18.50;;
21432;SDS011;18592;49.708;10.900;2022-12-18T02:34:02;32.33;;;17.00;;
21432;SDS011;18592;49.708;10.900;2022-12-18T02:36:11;34.70;;;18.20;;
21432;SDS011;18592;49.708;10.900;2022-12-18T02:38:17;38.03;;;17.63;;
21432;SDS011;18592;49.708;10.900;2022-12-18T02:40:23;37.37;;;17.73;;
21432;SDS011;18592;49.708;10.900;2022-12-18T02:42:28;35.07;;;17.70;;
21432;SDS011;18592;49.708;10.900;2022-12-18T02:44:30;36.57;;;18.13;;
21432;SDS011;18592;49.708;10.900;2022-12-18T02:46:33;37.30;;;18.27;;
21432;SDS011;18592;49.708;10.900;2022-12-18T02:48:45;37.67;;;17.27;;
21432;SDS011;18592;49.708;10.900;2022-12-18T02:50:52;38.20;;;17.87;;
21432;SDS011;18592;49.708;10.900;2022-12-18T02:55:21;37.83;;;17.67;;
21432;SDS011;18592;49.708;10.900;2022-12-18T02:57:54;33.53;;;18.03;;
21432;SDS011;18592;49.708;10.900;2022-12-18T03:00:08;37.67;;;18.30;;
21432;SDS011;18592;49.708;10.900;2022-12-18T03:02:21;33.47;;;17.50;;
21432;SDS011;18592;49.708;10.900;2022-12-18T03:04:31;31.00;;;16.53;;
21432;SDS011;18592;49.708;10.900;2022-12-18T03:06:42;42.40;;;18.83;;
21432;SDS011;18592;49.708;10.900;2022-12-18T03:08:54;34.77;;;16.97;;
21432;SDS011;18592;49.708;10.900;2022-12-18T03:11:02;41.03;;;18.33;;
21432;SDS011;18592;49.708;10.900;2022-12-18T03:13:08;35.30;;;17.70;;
21432;SDS011;18592;49.708;10.900;2022-12-18T03:15:18;35.67;;;18.17;;
21432;SDS011;18592;49.708;10.900;2022-12-18T03:17:31;32.03;;;16.77;;
21432;SDS011;18592;49.708;10.900;2022-12-18T03:19:35;36.83;;;17.00;;
21432;SDS011;18592;49.708;10.900;2022-12-18T03:21:40;37.17;;;16.83;;
21432;SDS011;18592;49.708;10.900;2022-12-18T03:23:54;37.00;;;18.13;;
21432;SDS011;18592;49.708;10.900;2022-12-18T03:26:03;35.53;;;18.07;;
21432;SDS011;18592;49.708;10.900;2022-12-18T03:28:15;35.97;;;17.37;;
21432;SDS011;18592;49.708;10.900;2022-12-18T03:30:21;37.53;;;17.07;;
21432;SDS011;18592;49.708;10.900;2022-12-18T03:32:33;34.13;;;17.07;;
21432;SDS011;18592;49.708;10.900;2022-12-18T03:34:42;35.07;;;15.93;;
21432;SDS011;18592;49.708;10.900;2022-12-18T03:36:49;36.53;;;18.00;;
21432;SDS011;18592;49.708;10.900;2022-12-18T03:38:52;35.57;;;18.13;;
21432;SDS011;18592;49.708;10.900;2022-12-18T03:43:52;34.37;;;17.73;;
21432;SDS011;18592;49.708;10.900;2022-12-18T03:46:08;35.53;;;17.90;;
21432;SDS011;18592;49.708;10.900;2022-12-18T03:51:26;36.23;;;17.17;;
21432;SDS011;18592;49.708;10.900;2022-12-18T03:53:39;34.40;;;17.10;;
21432;SDS011;18592;49.708;10.900;2022-12-18T03:56:06;34.80;;;17.07;;
21432;SDS011;18592;49.708;10.900;2022-12-18T03:58:15;36.43;;;17.30;;
21432;SDS011;18592;49.708;10.900;2022-12-18T04:00:28;36.23;;;18.10;;
21432;SDS011;18592;49.708;10.900;2022-12-18T04:02:43;33.23;;;16.93;;
21432;SDS011;18592;49.708;10.900;2022-12-18T04:05:03;44.67;;;18.63;;
21432;SDS011;18592;49.708;10.900;2022-12-18T04:07:10;34.00;;;17.00;;
21432;SDS011;18592;49.708;10.900;2022-12-18T04:09:17;33.97;;;17.67;;
21432;SDS011;18592;49.708;10.900;2022-12-18T04:11:23;37.40;;;18.40;;
21432;SDS011;18592;49.708;10.900;2022-12-18T04:13:29;41.77;;;19.03;;
21432;SDS011;18592;49.708;10.900;2022-12-18T04:15:37;37.07;;;17.73;;
21432;SDS011;18592;49.708;10.900;2022-12-18T04:17:47;45.90;;;20.93;;
21432;SDS011;18592;49.708;10.900;2022-12-18T04:19:54;32.70;;;17.70;;
21432;SDS011;18592;49.708;10.900;2022-12-18T04:21:58;39.17;;;18.60;;
21432;SDS011;18592;49.708;10.900;2022-12-18T04:24:01;43.17;;;19.97;;
21432;SDS011;18592;49.708;10.900;2022-12-18T04:26:03;40.43;;;19.47;;
21432;SDS011;18592;49.708;10.900;2022-12-18T04:28:17;35.53;;;17.97;;
21432;SDS011;18592;49.708;10.900;2022-12-18T04:30:19;34.43;;;18.83;;
21432;SDS011;18592;49.708;10.900;2022-12-18T04:32:21;38.07;;;19.40;;
21432;SDS011;18592;49.708;10.900;2022-12-18T04:34:28;38.80;;;18.63;;
21432;SDS011;18592;49.708;10.900;2022-12-18T04:36:31;40.53;;;19.30;;
21432;SDS011;18592;49.708;10.900;2022-12-18T04:38:33;38.10;;;19.37;;
21432;SDS011;18592;49.708;10.900;2022-12-18T04:40:41;42.17;;;19.73;;
21432;SDS011;18592;49.708;10.900;2022-12-18T04:42:51;37.63;;;18.53;;
21432;SDS011;18592;49.708;10.900;2022-12-18T04:44:52;37.33;;;19.10;;
21432;SDS011;18592;49.708;10.900;2022-12-18T04:46:54;37.67;;;18.83;;
21432;SDS011;18592;49.708;10.900;2022-12-18T04:48:58;33.60;;;18.47;;
21432;SDS011;18592;49.708;10.900;2022-12-18T04:51:00;36.80;;;18.60;;
21432;SDS011;18592;49.708;10.900;2022-12-18T04:53:02;34.67;;;17.93;;
21432;SDS011;18592;49.708;10.900;2022-12-18T04:55:06;37.43;;;17.97;;
21432;SDS011;18592;49.708;10.900;2022-12-18T04:57:08;34.13;;;17.47;;
21432;SDS011;18592;49.708;10.900;2022-12-18T04:59:10;39.00;;;18.93;;
21432;SDS011;18592;49.708;10.900;2022-12-18T05:01:12;35.80;;;17.80;;
21432;SDS011;18592;49.708;10.900;2022-12-18T05:03:15;35.43;;;18.43;;
21432;SDS011;18592;49.708;10.900;2022-12-18T05:05:17;35.40;;;18.00;;
21432;SDS011;18592;49.708;10.900;2022-12-18T05:07:18;37.70;;;18.17;;
21432;SDS011;18592;49.708;10.900;2022-12-18T05:09:20;32.50;;;16.67;;
21432;SDS011;18592;49.708;10.900;2022-12-18T05:11:22;35.17;;;16.70;;
21432;SDS011;18592;49.708;10.900;2022-12-18T05:13:24;34.47;;;17.67;;
21432;SDS011;18592;49.708;10.900;2022-12-18T05:15:29;28.63;;;16.57;;
21432;SDS011;18592;49.708;10.900;2022-12-18T05:17:31;31.50;;;15.70;;
21432;SDS011;18592;49.708;10.900;2022-12-18T05:19:33;34.90;;;17.07;;
21432;SDS011;18592;49.708;10.900;2022-12-18T05:21:34;30.43;;;15.67;;
21432;SDS011;18592;49.708;10.900;2022-12-18T05:23:36;31.87;;;15.13;;
21432;SDS011;18592;49.708;10.900;2022-12-18T05:25:39;31.63;;;15.83;;
21432;SDS011;18592;49.708;10.900;2022-12-18T05:27:41;32.37;;;16.77;;
21432;SDS011;18592;49.708;10.900;2022-12-18T05:29:43;33.20;;;17.60;;
21432;SDS011;18592;49.708;10.900;2022-12-18T05:31:54;34.70;;;20.03;;
21432;SDS011;18592;49.708;10.900;2022-12-18T05:33:58;42.87;;;22.27;;
21432;SDS011;18592;49.708;10.900;2022-12-18T05:36:00;37.30;;;23.17;;
21432;SDS011;18592;49.708;10.900;2022-12-18T05:38:03;46.53;;;27.50;;
21432;SDS011;18592;49.708;10.900;2022-12-18T05:40:11;46.30;;;27.50;;
21432;SDS011;18592;49.708;10.900;2022-12-18T05:42:13;48.33;;;28.70;;
21432;SDS011;18592;49.708;10.900;2022-12-18T05:44:14;50.87;;;30.83;;
21432;SDS011;18592;49.708;10.900;2022-12-18T05:46:17;47.37;;;31.73;;
21432;SDS011;18592;49.708;10.900;2022-12-18T05:48:22;46.80;;;28.70;;
21432;SDS011;18592;49.708;10.900;2022-12-18T05:50:24;42.73;;;28.47;;
21432;SDS011;18592;49.708;10.900;2022-12-18T05:52:26;44.20;;;27.50;;
21432;SDS011;18592;49.708;10.900;2022-12-18T05:54:27;41.00;;;26.37;;
21432;SDS011;18592;49.708;10.900;2022-12-18T05:56:29;39.57;;;24.37;;
21432;SDS011;18592;49.708;10.900;2022-12-18T05:58:31;38.43;;;23.43;;
21432;SDS011;18592;49.708;10.900;2022-12-18T06:00:37;33.40;;;21.20;;
21432;SDS011;18592;49.708;10.900;2022-12-18T06:02:41;37.50;;;19.33;;
21432;SDS011;18592;49.708;10.900;2022-12-18T06:04:46;37.83;;;19.90;;
21432;SDS011;18592;49.708;10.900;2022-12-18T06:06:50;36.97;;;18.17;;
21432;SDS011;18592;49.708;10.900;2022-12-18T06:08:53;29.43;;;16.70;;
21432;SDS011;18592;49.708;10.900;2022-12-18T06:10:56;34.40;;;17.17;;
21432;SDS011;18592;49.708;10.900;2022-12-18T06:12:57;32.43;;;16.97;;
21432;SDS011;18592;49.708;10.900;2022-12-18T06:14:59;33.90;;;16.57;;
21432;SDS011;18592;49.708;10.900;2022-12-18T06:17:01;36.57;;;17.17;;
21432;SDS011;18592;49.708;10.900;2022-12-18T06:19:04;31.07;;;16.10;;
21432;SDS011;18592;49.708;10.900;2022-12-18T06:21:06;34.97;;;17.07;;
21432;SDS011;18592;49.708;10.900;2022-12-18T06:23:08;35.33;;;16.77;;
21432;SDS011;18592;49.708;10.900;2022-12-18T06:25:15;29.47;;;14.70;;
21432;SDS011;18592;49.708;10.900;2022-12-18T06:27:17;32.00;;;16.20;;
21432;SDS011;18592;49.708;10.900;2022-12-18T06:29:22;30.83;;;14.17;;
21432;SDS011;18592;49.708;10.900;2022-12-18T06:31:24;33.87;;;15.30;;
21432;SDS011;18592;49.708;10.900;2022-12-18T06:33:26;30.13;;;15.47;;
21432;SDS011;18592;49.708;10.900;2022-12-18T06:35:29;30.37;;;14.43;;
21432;SDS011;18592;49.708;10.900;2022-12-18T06:37:31;24.73;;;13.90;;
21432;SDS011;18592;49.708;10.900;2022-12-18T06:39:33;29.40;;;14.97;;
21432;SDS011;18592;49.708;10.900;2022-12-18T06:41:37;30.97;;;15.27;;
21432;SDS011;18592;49.708;10.900;2022-12-18T06:43:44;26.50;;;14.00;;
21432;SDS011;18592;49.708;10.900;2022-12-18T06:45:45;30.03;;;14.63;;
21432;SDS011;18592;49.708;10.900;2022-12-18T06:47:53;27.13;;;13.90;;
21432;SDS011;18592;49.708;10.900;2022-12-18T06:49:55;26.47;;;13.93;;
21432;SDS011;18592;49.708;10.900;2022-12-18T06:51:57;26.33;;;13.77;;
21432;SDS011;18592;49.708;10.900;2022-12-18T06:53:58;31.90;;;15.13;;
21432;SDS011;18592;49.708;10.900;2022-12-18T06:56:03;25.37;;;13.17;;
21432;SDS011;18592;49.708;10.900;2022-12-18T06:58:11;30.03;;;14.97;;
21432;SDS011;18592;49.708;10.900;2022-12-18T07:00:12;27.00;;;13.53;;
21432;SDS011;18592;49.708;10.900;2022-12-18T07:02:14;23.60;;;12.03;;
21432;SDS011;18592;49.708;10.900;2022-12-18T07:04:16;27.97;;;13.77;;
21432;SDS011;18592;49.708;10.900;2022-12-18T07:06:19;24.87;;;12.30;;
21432;SDS011;18592;49.708;10.900;2022-12-18T07:08:22;29.40;;;13.77;;
21432;SDS011;18592;49.708;10.900;2022-12-18T07:10:25;23.73;;;11.50;;
21432;SDS011;18592;49.708;10.900;2022-12-18T07:12:27;26.80;;;12.73;;
21432;SDS011;18592;49.708;10.900;2022-12-18T07:14:29;24.57;;;12.23;;
21432;SDS011;18592;49.708;10.900;2022-12-18T07:16:30;26.67;;;12.60;;
21432;SDS011;18592;49.708;10.900;2022-12-18T07:18:32;29.03;;;13.63;;
21432;SDS011;18592;49.708;10.900;2022-12-18T07:20:37;27.23;;;13.90;;
21432;SDS011;18592;49.708;10.900;2022-12-18T07:22:38;28.53;;;13.37;;
21432;SDS011;18592;49.708;10.900;2022-12-18T07:24:40;32.47;;;13.97;;
21432;SDS011;18592;49.708;10.900;2022-12-18T07:26:47;26.73;;;12.73;;
21432;SDS011;18592;49.708;10.900;2022-12-18T07:28:54;26.60;;;14.20;;
21432;SDS011;18592;49.708;10.900;2022-12-18T07:31:02;30.17;;;15.43;;
21432;SDS011;18592;49.708;10.900;2022-12-18T07:33:05;28.80;;;13.83;;
21432;SDS011;18592;49.708;10.900;2022-12-18T07:35:06;27.60;;;13.93;;
21432;SDS011;18592;49.708;10.900;2022-12-18T07:37:08;24.20;;;13.03;;
21432;SDS011;18592;49.708;10.900;2022-12-18T07:39:13;28.03;;;14.33;;
21432;SDS011;18592;49.708;10.900;2022-12-18T07:41:15;25.70;;;13.90;;
21432;SDS011;18592;49.708;10.900;2022-12-18T07:43:17;30.37;;;14.70;;
21432;SDS011;18592;49.708;10.900;2022-12-18T07:45:21;29.10;;;14.53;;
21432;SDS011;18592;49.708;10.900;2022-12-18T07:47:23;23.60;;;13.07;;
21432;SDS011;18592;49.708;10.900;2022-12-18T07:49:25;27.67;;;13.70;;
21432;SDS011;18592;49.708;10.900;2022-12-18T07:51:26;26.20;;;13.70;;
21432;SDS011;18592;49.708;10.900;2022-12-18T07:53:28;29.17;;;14.07;;
21432;SDS011;18592;49.708;10.900;2022-12-18T07:55:31;24.27;;;12.97;;
21432;SDS011;18592;49.708;10.900;2022-12-18T07:57:53;27.90;;;13.07;;
21432;SDS011;18592;49.708;10.900;2022-12-18T08:00:02;25.70;;;13.53;;
21432;SDS011;18592;49.708;10.900;2022-12-18T08:02:12;25.83;;;13.27;;
21432;SDS011;18592;49.708;10.900;2022-12-18T08:04:16;27.03;;;14.07;;
21432;SDS011;18592;49.708;10.900;2022-12-18T08:06:18;29.80;;;15.47;;
21432;SDS011;18592;49.708;10.900;2022-12-18T08:08:25;26.80;;;14.17;;
21432;SDS011;18592;49.708;10.900;2022-12-18T08:10:27;30.30;;;15.13;;
21432;SDS011;18592;49.708;10.900;2022-12-18T08:12:31;28.73;;;15.00;;
21432;SDS011;18592;49.708;10.900;2022-12-18T08:14:32;28.40;;;15.63;;
21432;SDS011;18592;49.708;10.900;2022-12-18T08:16:36;27.43;;;14.77;;
21432;SDS011;18592;49.708;10.900;2022-12-18T08:18:38;28.07;;;15.03;;
21432;SDS011;18592;49.708;10.900;2022-12-18T08:20:39;25.50;;;13.60;;
21432;SDS011;18592;49.708;10.900;2022-12-18T08:22:44;22.63;;;13.13;;
21432;SDS011;18592;49.708;10.900;2022-12-18T08:24:46;26.23;;;13.67;;
21432;SDS011;18592;49.708;10.900;2022-12-18T08:26:50;29.47;;;14.93;;
21432;SDS011;18592;49.708;10.900;2022-12-18T08:29:12;27.47;;;15.50;;
21432;SDS011;18592;49.708;10.900;2022-12-18T08:31:22;29.90;;;15.53;;
21432;SDS011;18592;49.708;10.900;2022-12-18T08:33:25;29.07;;;15.13;;
21432;SDS011;18592;49.708;10.900;2022-12-18T08:35:27;28.73;;;15.73;;
21432;SDS011;18592;49.708;10.900;2022-12-18T08:37:36;30.40;;;15.50;;
21432;SDS011;18592;49.708;10.900;2022-12-18T08:39:38;30.87;;;15.37;;
21432;SDS011;18592;49.708;10.900;2022-12-18T08:41:39;27.70;;;14.77;;
21432;SDS011;18592;49.708;10.900;2022-12-18T08:43:41;26.93;;;14.37;;
21432;SDS011;18592;49.708;10.900;2022-12-18T08:46:02;30.50;;;14.37;;
21432;SDS011;18592;49.708;10.900;2022-12-18T08:48:04;28.93;;;14.83;;
21432;SDS011;18592;49.708;10.900;2022-12-18T08:50:06;28.83;;;14.53;;
21432;SDS011;18592;49.708;10.900;2022-12-18T08:52:08;27.40;;;13.77;;
21432;SDS011;18592;49.708;10.900;2022-12-18T08:54:13;27.03;;;14.30;;
21432;SDS011;18592;49.708;10.900;2022-12-18T08:56:15;28.60;;;14.53;;
21432;SDS011;18592;49.708;10.900;2022-12-18T08:58:19;30.07;;;15.47;;
21432;SDS011;18592;49.708;10.900;2022-12-18T09:00:21;26.53;;;14.40;;
21432;SDS011;18592;49.708;10.900;2022-12-18T09:02:23;28.70;;;16.03;;
21432;SDS011;18592;49.708;10.900;2022-12-18T09:04:24;27.93;;;15.17;;
21432;SDS011;18592;49.708;10.900;2022-12-18T09:06:26;28.47;;;15.87;;
21432;SDS011;18592;49.708;10.900;2022-12-18T09:08:28;27.00;;;15.00;;
21432;SDS011;18592;49.708;10.900;2022-12-18T09:10:30;26.03;;;14.13;;
21432;SDS011;18592;49.708;10.900;2022-12-18T09:12:34;30.87;;;16.37;;
21432;SDS011;18592;49.708;10.900;2022-12-18T09:14:36;31.70;;;16.33;;
21432;SDS011;18592;49.708;10.900;2022-12-18T09:16:41;31.17;;;16.13;;
21432;SDS011;18592;49.708;10.900;2022-12-18T09:18:43;29.70;;;15.97;;
21432;SDS011;18592;49.708;10.900;2022-12-18T09:20:48;31.17;;;16.37;;
21432;SDS011;18592;49.708;10.900;2022-12-18T09:22:52;30.67;;;15.93;;
21432;SDS011;18592;49.708;10.900;2022-12-18T09:24:57;29.43;;;15.80;;
21432;SDS011;18592;49.708;10.900;2022-12-18T09:26:59;31.33;;;16.87;;
21432;SDS011;18592;49.708;10.900;2022-12-18T09:29:01;32.90;;;18.20;;
21432;SDS011;18592;49.708;10.900;2022-12-18T09:31:05;37.97;;;18.23;;
21432;SDS011;18592;49.708;10.900;2022-12-18T09:33:09;35.90;;;18.97;;
21432;SDS011;18592;49.708;10.900;2022-12-18T09:35:11;37.00;;;19.67;;
21432;SDS011;18592;49.708;10.900;2022-12-18T09:37:12;37.00;;;18.43;;
21432;SDS011;18592;49.708;10.900;2022-12-18T09:39:14;37.47;;;18.97;;
21432;SDS011;18592;49.708;10.900;2022-12-18T09:41:36;36.30;;;17.87;;
21432;SDS011;18592;49.708;10.900;2022-12-18T09:43:50;35.53;;;17.90;;
21432;SDS011;18592;49.708;10.900;2022-12-18T09:45:56;33.17;;;17.63;;
21432;SDS011;18592;49.708;10.900;2022-12-18T09:48:02;31.17;;;17.67;;
21432;SDS011;18592;49.708;10.900;2022-12-18T09:50:15;33.23;;;17.30;;
21432;SDS011;18592;49.708;10.900;2022-12-18T09:52:33;32.93;;;17.10;;
21432;SDS011;18592;49.708;10.900;2022-12-18T09:54:43;33.37;;;16.53;;
21432;SDS011;18592;49.708;10.900;2022-12-18T09:57:05;33.10;;;16.80;;
21432;SDS011;18592;49.708;10.900;2022-12-18T09:59:09;31.57;;;16.97;;
21432;SDS011;18592;49.708;10.900;2022-12-18T10:01:24;29.40;;;15.57;;
21432;SDS011;18592;49.708;10.900;2022-12-18T10:03:39;32.17;;;16.63;;
21432;SDS011;18592;49.708;10.900;2022-12-18T10:15:16;32.23;;;16.63;;
21432;SDS011;18592;49.708;10.900;2022-12-18T10:17:28;29.20;;;16.20;;
21432;SDS011;18592;49.708;10.900;2022-12-18T10:24:32;28.70;;;14.97;;
21432;SDS011;18592;49.708;10.900;2022-12-18T10:26:45;31.77;;;15.57;;
21432;SDS011;18592;49.708;10.900;2022-12-18T10:28:48;31.30;;;15.63;;
21432;SDS011;18592;49.708;10.900;2022-12-18T10:30:52;28.03;;;14.87;;
21432;SDS011;18592;49.708;10.900;2022-12-18T10:33:00;30.43;;;15.20;;
21432;SDS011;18592;49.708;10.900;2022-12-18T10:35:03;26.53;;;13.77;;
21432;SDS011;18592;49.708;10.900;2022-12-18T10:37:06;27.23;;;14.07;;
21432;SDS011;18592;49.708;10.900;2022-12-18T10:39:18;28.63;;;15.07;;
21432;SDS011;18592;49.708;10.900;2022-12-18T10:41:29;26.80;;;13.63;;
21432;SDS011;18592;49.708;10.900;2022-12-18T10:43:33;26.30;;;13.63;;
21432;SDS011;18592;49.708;10.900;2022-12-18T10:45:35;25.87;;;13.17;;
21432;SDS011;18592;49.708;10.900;2022-12-18T10:47:41;25.40;;;12.47;;
21432;SDS011;18592;49.708;10.900;2022-12-18T10:49:49;25.27;;;12.37;;
21432;SDS011;18592;49.708;10.900;2022-12-18T10:54:29;25.47;;;12.93;;
21432;SDS011;18592;49.708;10.900;2022-12-18T10:56:35;24.63;;;12.73;;
21432;SDS011;18592;49.708;10.900;2022-12-18T10:58:39;25.97;;;12.73;;
21432;SDS011;18592;49.708;10.900;2022-12-18T11:00:53;27.57;;;13.97;;
21432;SDS011;18592;49.708;10.900;2022-12-18T11:03:33;27.23;;;13.97;;
21432;SDS011;18592;49.708;10.900;2022-12-18T11:05:38;26.20;;;12.73;;
21432;SDS011;18592;49.708;10.900;2022-12-18T11:07:49;26.50;;;13.07;;
21432;SDS011;18592;49.708;10.900;2022-12-18T11:10:01;27.67;;;13.63;;
21432;SDS011;18592;49.708;10.900;2022-12-18T11:15:01;24.73;;;12.60;;
21432;SDS011;18592;49.708;10.900;2022-12-18T11:16:48;25.13;;;12.90;;
21432;SDS011;18592;49.708;10.900;2022-12-18T11:21:28;26.60;;;13.03;;
21432;SDS011;18592;49.708;10.900;2022-12-18T11:23:30;25.03;;;13.50;;
21432;SDS011;18592;49.708;10.900;2022-12-18T11:25:32;23.50;;;12.23;;
21432;SDS011;18592;49.708;10.900;2022-12-18T11:27:37;29.33;;;13.93;;
21432;SDS011;18592;49.708;10.900;2022-12-18T11:29:41;26.90;;;12.90;;
21432;SDS011;18592;49.708;10.900;2022-12-18T11:31:47;24.07;;;12.23;;
21432;SDS011;18592;49.708;10.900;2022-12-18T11:36:19;27.23;;;13.73;;
21432;SDS011;18592;49.708;10.900;2022-12-18T11:38:26;25.90;;;12.73;;
21432;SDS011;18592;49.708;10.900;2022-12-18T11:40:40;24.30;;;12.70;;
21432;SDS011;18592;49.708;10.900;2022-12-18T11:42:48;24.13;;;12.07;;
21432;SDS011;18592;49.708;10.900;2022-12-18T11:45:21;29.73;;;13.30;;
21432;SDS011;18592;49.708;10.900;2022-12-18T11:47:43;27.23;;;13.07;;
21432;SDS011;18592;49.708;10.900;2022-12-18T11:49:53;23.67;;;12.27;;
21432;SDS011;18592;49.708;10.900;2022-12-18T11:54:22;23.37;;;12.10;;
21432;SDS011;18592;49.708;10.900;2022-12-18T12:01:04;23.60;;;12.50;;
21432;SDS011;18592;49.708;10.900;2022-12-18T12:03:26;28.73;;;12.93;;
21432;SDS011;18592;49.708;10.900;2022-12-18T12:08:11;26.17;;;13.33;;
21432;SDS011;18592;49.708;10.900;2022-12-18T12:15:39;22.93;;;12.20;;
21432;SDS011;18592;49.708;10.900;2022-12-18T12:20:15;22.83;;;11.80;;
21432;SDS011;18592;49.708;10.900;2022-12-18T12:25:42;21.67;;;11.97;;
21432;SDS011;18592;49.708;10.900;2022-12-18T12:35:55;22.27;;;11.70;;
21432;SDS011;18592;49.708;10.900;2022-12-18T12:40:30;23.13;;;11.33;;
21432;SDS011;18592;49.708;10.900;2022-12-18T12:42:56;23.77;;;12.33;;
21432;SDS011;18592;49.708;10.900;2022-12-18T12:45:22;26.30;;;12.90;;
21432;SDS011;18592;49.708;10.900;2022-12-18T12:47:36;24.13;;;12.03;;
21432;SDS011;18592;49.708;10.900;2022-12-18T12:49:44;22.73;;;11.90;;
21432;SDS011;18592;49.708;10.900;2022-12-18T12:51:53;22.83;;;11.70;;
21432;SDS011;18592;49.708;10.900;2022-12-18T12:54:05;22.90;;;12.10;;
21432;SDS011;18592;49.708;10.900;2022-12-18T12:56:15;22.83;;;11.77;;
21432;SDS011;18592;49.708;10.900;2022-12-18T12:58:33;23.07;;;11.87;;
21432;SDS011;18592;49.708;10.900;2022-12-18T13:01:00;27.97;;;12.63;;
21432;SDS011;18592;49.708;10.900;2022-12-18T13:03:23;22.23;;;12.17;;
21432;SDS011;18592;49.708;10.900;2022-12-18T13:05:42;21.73;;;10.80;;
21432;SDS011;18592;49.708;10.900;2022-12-18T13:07:53;23.07;;;11.57;;
21432;SDS011;18592;49.708;10.900;2022-12-18T13:10:13;23.53;;;12.23;;
21432;SDS011;18592;49.708;10.900;2022-12-18T13:12:19;24.33;;;12.30;;
21432;SDS011;18592;49.708;10.900;2022-12-18T13:14:40;23.87;;;12.07;;
21432;SDS011;18592;49.708;10.900;2022-12-18T13:16:42;24.07;;;11.60;;
21432;SDS011;18592;49.708;10.900;2022-12-18T13:18:48;23.23;;;11.70;;
21432;SDS011;18592;49.708;10.900;2022-12-18T13:29:53;23.10;;;11.37;;
21432;SDS011;18592;49.708;10.900;2022-12-18T13:31:58;23.20;;;12.47;;
21432;SDS011;18592;49.708;10.900;2022-12-18T13:34:16;23.27;;;11.63;;
21432;SDS011;18592;49.708;10.900;2022-12-18T13:36:30;23.50;;;12.40;;
21432;SDS011;18592;49.708;10.900;2022-12-18T13:38:34;24.20;;;12.23;;